Time;durP1;ratioP1;P1;durP2;ratioP2;P2;SDS_P1;SDS_P2;PMS_P1;PMS_P2;Temp;Humidity;BMP_temperature;BMP_pressure;BME280_temperature;BME280_humidity;BME280_pressure;Samples;Min_cycle;Max_cycle;Signal;HPM_P1;HPM_P2
2021/05/17 00:04:49;;;;;;;9.10;7.15;;;9.20;99.90;;;;;;12201093;28;20159;-77
2021/05/17 00:10:52;;;;;;;11.18;7.50;;;9.10;99.90;;;;;;12210759;28;20059;-77
2021/05/17 00:16:54;;;;;;;10.13;7.53;;;9.10;99.90;;;;;;12208257;28;20136;-77
2021/05/17 00:22:57;;;;;;;12.55;9.20;;;9.10;99.90;;;;;;12206135;28;20086;-77
2021/05/17 00:28:59;;;;;;;13.07;9.82;;;9.00;99.90;;;;;;12221756;28;20127;-77
2021/05/17 00:35:01;;;;;;;14.60;10.57;;;9.00;99.90;;;;;;12262481;28;20059;-77
2021/05/17 00:41:03;;;;;;;18.98;11.50;;;9.00;99.90;;;;;;12230055;28;20091;-77
2021/05/17 00:47:14;;;;;;;19.15;13.25;;;9.00;99.90;;;;;;12217173;28;20072;-77
2021/05/17 00:53:17;;;;;;;15.38;11.25;;;9.10;99.90;;;;;;12203327;28;20044;-77
2021/05/17 00:59:19;;;;;;;17.38;12.43;;;9.30;99.90;;;;;;12212043;28;20135;-76
2021/05/17 01:05:21;;;;;;;18.48;12.75;;;9.40;99.90;;;;;;12157973;28;20094;-76
2021/05/17 01:11:28;;;;;;;17.98;11.70;;;9.30;99.90;;;;;;12150406;29;20131;-77
2021/05/17 01:17:30;;;;;;;15.52;11.23;;;9.30;99.90;;;;;;12152384;29;20167;-77
2021/05/17 01:23:43;;;;;;;16.13;11.40;;;9.10;99.90;;;;;;12149746;29;20512;-77
2021/05/17 01:29:46;;;;;;;17.13;11.13;;;9.10;99.90;;;;;;12150960;28;20132;-77
2021/05/17 01:35:48;;;;;;;15.23;11.25;;;9.10;99.90;;;;;;12166880;28;20127;-77
2021/05/17 01:41:54;;;;;;;17.08;11.68;;;9.00;99.90;;;;;;12174160;28;20108;-77
2021/05/17 01:47:57;;;;;;;16.48;11.82;;;8.90;99.90;;;;;;12205928;28;20174;-77
2021/05/17 01:54:00;;;;;;;18.13;12.47;;;8.80;99.90;;;;;;12208131;28;20060;-77
2021/05/17 02:00:05;;;;;;;16.45;12.00;;;8.80;99.90;;;;;;12206031;28;20064;-77
2021/05/17 02:06:08;;;;;;;17.38;12.23;;;8.80;99.90;;;;;;12163191;28;20106;-77
2021/05/17 02:12:11;;;;;;;20.67;15.07;;;8.70;99.90;;;;;;12148492;29;20126;-77
2021/05/17 02:18:14;;;;;;;20.15;14.02;;;8.70;99.90;;;;;;12155363;28;20146;-77
2021/05/17 02:24:16;;;;;;;21.48;13.43;;;8.70;99.90;;;;;;12182260;29;20040;-77
2021/05/17 02:30:19;;;;;;;17.55;12.68;;;8.60;99.90;;;;;;12193815;29;20105;-77
2021/05/17 02:36:21;;;;;;;16.95;12.45;;;8.60;99.90;;;;;;12196661;29;20488;-77
2021/05/17 02:42:26;;;;;;;24.02;11.75;;;8.60;99.90;;;;;;12192395;28;20075;-78
2021/05/17 02:48:29;;;;;;;15.32;11.50;;;8.50;99.90;;;;;;12189473;28;20098;-77
2021/05/17 02:54:35;;;;;;;14.35;9.50;;;8.50;99.90;;;;;;12202387;28;20419;-77
2021/05/17 03:00:38;;;;;;;13.55;10.40;;;8.50;99.90;;;;;;12203188;28;20071;-77
2021/05/17 03:06:41;;;;;;;13.30;9.50;;;8.40;99.90;;;;;;12187733;29;20060;-76
2021/05/17 03:12:45;;;;;;;;;;;8.40;99.90;;;;;;12191353;29;20052;-77
2021/05/17 03:18:48;;;;;;;13.63;9.60;;;8.40;99.90;;;;;;12191998;28;19945;-77
2021/05/17 03:24:53;;;;;;;14.10;9.57;;;8.30;99.90;;;;;;12183538;28;20044;-77
2021/05/17 03:30:57;;;;;;;17.90;8.10;;;8.40;99.90;;;;;;12204505;28;20727;-77
2021/05/17 03:36:59;;;;;;;15.77;8.05;;;8.50;99.90;;;;;;12196013;28;20071;-77
2021/05/17 03:43:01;;;;;;;12.75;8.52;;;8.50;99.90;;;;;;12204915;28;20523;-77
2021/05/17 03:49:06;;;;;;;11.73;7.85;;;8.50;99.90;;;;;;12205065;29;20056;-78
2021/05/17 03:55:08;;;;;;;11.27;6.47;;;8.50;99.90;;;;;;12204649;28;20043;-77
2021/05/17 04:01:10;;;;;;;9.43;5.38;;;8.50;99.90;;;;;;12202985;29;20048;-77
2021/05/17 04:13:43;;;;;;;7.53;4.28;;;8.50;99.90;;;;;;12202746;28;20044;-77
2021/05/17 04:19:45;;;;;;;8.82;4.78;;;8.40;99.90;;;;;;12197426;28;20044;-77
2021/05/17 04:25:47;;;;;;;6.68;4.45;;;8.50;99.90;;;;;;12205526;29;20127;-77
2021/05/17 04:31:49;;;;;;;7.82;4.35;;;8.60;99.90;;;;;;12197523;28;20046;-78
2021/05/17 04:37:54;;;;;;;6.47;4.30;;;8.60;99.90;;;;;;12208683;28;20524;-78
2021/05/17 04:43:56;;;;;;;10.57;4.18;;;8.60;99.90;;;;;;12195749;28;20170;-77
2021/05/17 04:49:58;;;;;;;7.32;4.53;;;8.60;99.90;;;;;;12202182;28;20103;-78
2021/05/17 04:55:59;;;;;;;7.18;4.00;;;8.60;99.90;;;;;;12200906;28;20210;-78
2021/05/17 05:02:01;;;;;;;8.70;4.05;;;8.70;99.90;;;;;;12203325;29;20090;-78
2021/05/17 05:08:03;;;;;;;8.73;4.10;;;8.80;99.90;;;;;;12195277;29;20075;-78
2021/05/17 05:14:05;;;;;;;8.15;3.92;;;8.90;99.90;;;;;;12201952;29;20091;-78
2021/05/17 05:20:08;;;;;;;8.20;4.22;;;8.90;99.90;;;;;;12209373;29;20094;-78
2021/05/17 05:38:23;;;;;;;6.90;4.03;;;9.30;99.90;;;;;;12207677;28;20048;-78
2021/05/17 05:44:25;;;;;;;6.05;4.18;;;9.30;99.90;;;;;;12235073;28;20043;-78
2021/05/17 05:50:27;;;;;;;6.43;3.92;;;9.40;99.90;;;;;;12324822;28;20052;-78
2021/05/17 05:56:29;;;;;;;7.22;4.10;;;9.40;99.90;;;;;;12213949;28;20056;-78
2021/05/17 06:02:32;;;;;;;7.65;4.88;;;9.50;99.90;;;;;;12207813;28;20048;-78
2021/05/17 06:08:40;;;;;;;10.48;4.75;;;9.60;99.90;;;;;;12208059;28;20586;-78
2021/05/17 06:14:42;;;;;;;11.20;5.75;;;9.80;99.90;;;;;;12205275;29;20064;-78
2021/05/17 06:20:44;;;;;;;12.32;5.28;;;9.80;99.90;;;;;;12197876;28;20068;-78
2021/05/17 06:26:46;;;;;;;6.85;4.60;;;9.90;99.90;;;;;;12172191;28;20086;-78
2021/05/17 06:32:48;;;;;;;7.10;4.75;;;10.10;99.90;;;;;;12171821;28;20059;-78
2021/05/17 06:38:52;;;;;;;7.07;4.22;;;10.30;99.90;;;;;;12168534;28;20274;-78
2021/05/17 06:44:54;;;;;;;6.03;3.90;;;10.50;99.90;;;;;;12199790;28;20102;-78
2021/05/17 06:50:56;;;;;;;6.38;3.72;;;10.70;99.90;;;;;;12209789;28;20484;-78
2021/05/17 07:03:07;;;;;;;8.43;4.25;;;11.00;99.90;;;;;;12206932;28;20055;-78
2021/05/17 07:15:29;;;;;;;7.45;4.95;;;11.30;99.90;;;;;;12201723;28;20082;-79
2021/05/17 07:27:52;;;;;;;8.90;6.88;;;11.40;99.90;;;;;;12214243;28;20041;-78
2021/05/17 07:33:53;;;;;;;8.40;6.30;;;11.20;99.90;;;;;;12219514;28;20343;-78
2021/05/17 07:39:55;;;;;;;7.75;5.85;;;11.10;99.90;;;;;;12220961;28;20076;-78
2021/05/17 07:45:57;;;;;;;8.90;4.97;;;11.10;99.90;;;;;;12164220;28;20044;-78
2021/05/17 07:51:59;;;;;;;8.65;5.40;;;11.30;99.90;;;;;;12167249;29;20049;-79
2021/05/17 07:58:01;;;;;;;11.65;7.38;;;11.30;99.90;;;;;;12172011;29;20135;-78
2021/05/17 08:04:04;;;;;;;10.88;6.82;;;11.30;99.90;;;;;;12195052;28;20130;-78
2021/05/17 08:10:09;;;;;;;9.30;7.50;;;11.50;99.90;;;;;;12210792;29;20139;-78
2021/05/17 08:16:13;;;;;;;9.05;7.72;;;11.60;99.90;;;;;;12218839;28;20070;-78
2021/05/17 08:22:15;;;;;;;9.65;7.68;;;11.50;99.90;;;;;;12193495;28;20056;-78
2021/05/17 08:28:18;;;;;;;8.77;7.35;;;11.60;99.90;;;;;;12177661;28;20044;-78
2021/05/17 08:34:20;;;;;;;9.75;7.35;;;11.80;99.90;;;;;;12167012;28;20057;-79
2021/05/17 08:40:26;;;;;;;10.25;7.45;;;12.30;99.90;;;;;;12178968;28;20074;-78
2021/05/17 08:46:28;;;;;;;10.98;7.82;;;12.10;99.90;;;;;;12170675;28;20048;-79
2021/05/17 08:52:31;;;;;;;9.25;6.18;;;11.50;99.90;;;;;;12187103;28;20179;-78
2021/05/17 08:58:33;;;;;;;7.90;7.20;;;11.30;99.90;;;;;;12205041;28;20144;-78
2021/05/17 09:04:35;;;;;;;11.10;7.93;;;11.30;99.90;;;;;;12201431;28;20068;-78
2021/05/17 09:10:39;;;;;;;9.13;7.50;;;11.20;99.90;;;;;;12220605;28;20048;-79
2021/05/17 09:16:59;;;;;;;9.75;6.93;;;11.20;99.90;;;;;;12202777;28;20075;-79
2021/05/17 09:23:16;;;;;;;8.00;5.18;;;11.50;99.90;;;;;;12219617;28;20055;-79
2021/05/17 09:29:24;;;;;;;8.65;4.63;;;11.50;99.90;;;;;;12201728;28;20680;-79
2021/05/17 09:35:26;;;;;;;7.10;5.00;;;12.00;99.90;;;;;;12203485;28;20083;-79
2021/05/17 09:41:37;;;;;;;5.70;3.50;;;12.30;99.90;;;;;;12215194;28;20560;-79
2021/05/17 09:47:42;;;;;;;5.18;3.28;;;12.90;99.90;;;;;;12215980;28;20090;-79
2021/05/17 09:53:47;;;;;;;2.85;1.10;;;12.60;99.90;;;;;;12201049;28;20420;-79
2021/05/17 09:59:50;;;;;;;;;;;11.10;99.90;;;;;;12205237;28;20134;-80
2021/05/17 10:05:51;;;;;;;2.88;0.70;;;10.40;99.90;;;;;;12209272;28;19931;-79
2021/05/17 10:11:55;;;;;;;1.70;0.50;;;10.10;99.90;;;;;;12206137;28;20488;-79
2021/05/17 10:17:58;;;;;;;1.58;0.55;;;10.10;99.90;;;;;;12205783;28;20086;-79
2021/05/17 10:24:02;;;;;;;2.05;0.77;;;10.90;99.90;;;;;;12212836;28;20067;-79
2021/05/17 10:30:07;;;;;;;5.95;0.85;;;11.80;99.90;;;;;;12198059;28;20527;-79
2021/05/17 10:36:10;;;;;;;4.35;1.38;;;11.70;99.90;;;;;;12200319;28;20138;-79
2021/05/17 10:48:24;;;;;;;3.22;1.00;;;13.00;99.90;;;;;;12195794;28;20658;-78
2021/05/17 10:54:31;;;;;;;5.43;1.17;;;12.90;99.90;;;;;;12198267;28;20500;-79
2021/05/17 11:00:35;;;;;;;3.00;1.40;;;12.80;99.90;;;;;;12198891;28;20057;-79
2021/05/17 11:06:40;;;;;;;1.98;1.15;;;14.00;99.90;;;;;;12240417;28;20116;-78
2021/05/17 11:12:51;;;;;;;2.42;1.10;;;14.60;99.90;;;;;;12236583;28;20066;-79
2021/05/17 11:19:18;;;;;;;2.88;1.15;;;15.10;99.90;;;;;;12203265;28;20099;-79
2021/05/17 11:25:51;;;;;;;4.35;1.17;;;15.00;99.90;;;;;;12195930;28;20135;-78
2021/05/17 11:32:08;;;;;;;5.18;1.58;;;15.30;99.90;;;;;;12200987;28;20035;-79
2021/05/17 11:38:10;;;;;;;6.07;1.63;;;15.70;99.90;;;;;;12202785;28;20198;-79
2021/05/17 11:44:21;;;;;;;7.68;1.60;;;15.00;99.90;;;;;;12210546;28;20494;-79
2021/05/17 11:50:23;;;;;;;5.18;1.48;;;15.70;99.90;;;;;;12209041;28;20048;-79
2021/05/17 11:56:45;;;;;;;4.25;1.48;;;16.30;99.90;;;;;;12193445;28;20147;-79
2021/05/17 12:02:51;;;;;;;7.28;2.08;;;16.70;99.90;;;;;;12209666;28;20090;-79
2021/05/17 12:08:53;;;;;;;3.05;1.60;;;16.10;99.90;;;;;;12216395;28;20050;-79
2021/05/17 12:15:00;;;;;;;4.70;1.90;;;16.50;99.90;;;;;;12210383;28;20508;-80
2021/05/17 12:21:11;;;;;;;4.72;2.08;;;16.90;99.90;;;;;;12208743;28;20138;-80
2021/05/17 12:27:16;;;;;;;6.05;2.38;;;16.60;99.90;;;;;;12219283;28;20063;-80
2021/05/17 12:33:22;;;;;;;4.50;2.00;;;16.70;99.90;;;;;;12214578;28;20102;-80
2021/05/17 12:39:24;;;;;;;5.93;2.05;;;16.70;99.90;;;;;;12212876;28;20056;-79
2021/05/17 12:45:26;;;;;;;4.18;2.30;;;16.20;99.90;;;;;;12286313;28;20135;-80
2021/05/17 12:51:31;;;;;;;3.85;2.20;;;16.20;99.90;;;;;;12209726;28;20059;-80
2021/05/17 12:57:59;;;;;;;6.60;2.45;;;15.90;99.90;;;;;;12207704;28;20060;-80
2021/05/17 13:04:01;;;;;;;5.97;2.63;;;15.30;99.90;;;;;;12211101;28;20456;-80
2021/05/17 13:10:04;;;;;;;3.75;2.40;;;14.80;99.90;;;;;;12205032;28;20135;-80
2021/05/17 13:16:06;;;;;;;4.72;2.40;;;14.30;99.90;;;;;;12207190;28;20052;-80
2021/05/17 13:34:44;;;;;;;3.33;1.00;;;15.90;99.90;;;;;;12202491;28;20098;-80
2021/05/17 13:40:46;;;;;;;2.75;1.17;;;16.60;99.90;;;;;;12203689;28;20135;-81
2021/05/17 13:46:50;;;;;;;3.75;1.00;;;17.20;99.90;;;;;;12155987;28;20550;-81
2021/05/17 13:52:54;;;;;;;3.03;0.90;;;16.60;99.90;;;;;;12157154;29;20040;-81
2021/05/17 13:58:57;;;;;;;4.75;1.20;;;16.60;99.90;;;;;;12150570;29;20144;-81
2021/05/17 14:04:59;;;;;;;3.05;1.20;;;17.10;99.90;;;;;;12272929;28;20064;-81
2021/05/17 14:11:03;;;;;;;4.55;1.13;;;16.40;99.90;;;;;;12208103;28;20056;-80
2021/05/17 14:17:04;;;;;;;2.20;1.20;;;15.80;99.90;;;;;;12205828;28;20051;-80
2021/05/17 14:23:07;;;;;;;2.13;0.35;;;14.90;99.90;;;;;;12205724;28;20480;-80
2021/05/17 14:29:09;;;;;;;6.80;0.50;;;13.30;99.90;;;;;;12194662;28;20076;-80
2021/05/17 14:35:11;;;;;;;2.05;0.50;;;12.60;99.90;;;;;;12214764;28;20064;-80
2021/05/17 14:41:14;;;;;;;3.65;0.55;;;12.30;99.90;;;;;;12209950;28;20135;-80
2021/05/17 14:47:17;;;;;;;3.45;0.80;;;11.70;99.90;;;;;;12213431;28;20099;-79
2021/05/17 14:53:20;;;;;;;2.20;0.80;;;11.50;99.90;;;;;;12207362;28;20044;-79
2021/05/17 14:59:22;;;;;;;3.03;0.80;;;11.60;99.90;;;;;;12210543;28;20612;-79
2021/05/17 15:05:24;;;;;;;3.70;0.90;;;11.80;99.90;;;;;;12213294;28;20151;-79
2021/05/17 15:11:26;;;;;;;4.40;1.00;;;12.10;99.90;;;;;;12221267;28;20070;-80
2021/05/17 15:17:27;;;;;;;4.90;1.10;;;12.40;99.90;;;;;;12221089;28;20045;-80
2021/05/17 15:23:32;;;;;;;4.43;0.85;;;12.50;99.90;;;;;;12201738;28;20134;-79
2021/05/17 15:29:34;;;;;;;;;;;12.80;99.90;;;;;;12217361;28;20489;-80
2021/05/17 15:35:39;;;;;;;2.92;1.10;;;13.00;99.90;;;;;;12210152;28;20343;-79
2021/05/17 15:41:41;;;;;;;2.15;0.90;;;13.40;99.90;;;;;;12228726;28;20067;-79
2021/05/17 15:47:43;;;;;;;3.88;0.80;;;13.90;99.90;;;;;;12228412;28;20047;-79
2021/05/17 15:53:45;;;;;;;4.70;1.02;;;15.00;99.90;;;;;;12259110;28;20062;-79
2021/05/17 15:59:47;;;;;;;3.28;1.20;;;16.00;99.90;;;;;;12209287;28;20139;-79
2021/05/17 16:05:50;;;;;;;2.75;1.00;;;15.70;99.90;;;;;;12213171;28;20086;-79
2021/05/17 16:12:00;;;;;;;2.42;1.00;;;15.10;99.90;;;;;;12206562;28;20182;-79
2021/05/17 16:24:23;;;;;;;2.33;1.23;;;14.30;99.90;;;;;;12209454;28;20173;-79
2021/05/17 16:30:25;;;;;;;3.70;1.65;;;13.70;99.90;;;;;;12207310;28;20067;-79
2021/05/17 16:36:28;;;;;;;3.67;2.00;;;13.50;99.90;;;;;;12207890;28;20055;-79
2021/05/17 16:42:50;;;;;;;3.70;2.17;;;13.10;99.90;;;;;;12213879;28;20502;-79
2021/05/17 16:49:04;;;;;;;3.78;1.73;;;12.90;99.90;;;;;;12209250;28;20086;-79
2021/05/17 16:55:07;;;;;;;2.83;1.80;;;12.80;99.90;;;;;;12213073;28;20147;-79
2021/05/17 17:01:09;;;;;;;3.25;1.45;;;12.60;99.90;;;;;;12213601;28;20055;-79
2021/05/17 17:07:11;;;;;;;3.40;1.40;;;12.60;99.90;;;;;;12214898;28;20170;-79
2021/05/17 17:13:14;;;;;;;4.38;1.83;;;12.40;99.90;;;;;;12199867;28;20075;-79
2021/05/17 17:19:17;;;;;;;4.03;1.83;;;12.10;99.90;;;;;;12206929;28;20048;-79
2021/05/17 17:25:18;;;;;;;3.95;1.90;;;12.00;99.90;;;;;;12207212;28;20172;-79
2021/05/17 17:31:21;;;;;;;4.78;2.20;;;11.90;99.90;;;;;;12209675;28;20086;-78
2021/05/17 17:37:23;;;;;;;6.03;2.72;;;11.90;99.90;;;;;;12200846;28;20764;-79
2021/05/17 17:43:26;;;;;;;6.38;2.63;;;11.90;99.90;;;;;;12211792;28;20036;-79
2021/05/17 17:49:28;;;;;;;3.80;2.50;;;11.90;99.90;;;;;;12204841;28;20071;-79
2021/05/17 17:55:30;;;;;;;6.32;3.00;;;11.90;99.90;;;;;;12203737;28;20055;-78
2021/05/17 18:01:33;;;;;;;5.05;3.10;;;11.80;99.90;;;;;;12204898;28;20154;-79
2021/05/17 18:07:34;;;;;;;5.55;2.78;;;12.00;99.90;;;;;;12221310;28;20501;-79
2021/05/17 18:13:36;;;;;;;5.57;2.72;;;12.00;99.90;;;;;;12209292;28;20048;-78
2021/05/17 18:19:39;;;;;;;4.22;1.50;;;12.40;99.90;;;;;;12202617;28;20373;-78
2021/05/17 18:25:41;;;;;;;3.03;1.10;;;12.70;99.90;;;;;;12203532;28;20659;-78
2021/05/17 18:31:50;;;;;;;1.92;1.10;;;12.60;99.90;;;;;;12213251;28;20635;-78
2021/05/17 18:37:52;;;;;;;2.42;0.90;;;12.70;99.90;;;;;;12204487;28;20154;-79
2021/05/17 18:45:25;;;;;;;1.75;0.98;;;12.50;99.90;;;;;;12185291;28;20051;-79
2021/05/17 18:50:26;;;;;;;4.75;1.17;;;12.40;99.90;;;;;;12204937;28;20075;-79
2021/05/17 18:56:35;;;;;;;2.22;1.08;;;12.20;99.90;;;;;;12199389;28;20067;-79
2021/05/17 19:02:37;;;;;;;7.30;1.40;;;12.10;99.90;;;;;;12212024;28;20070;-79
2021/05/17 19:08:41;;;;;;;6.10;1.35;;;11.80;99.90;;;;;;12204379;28;20111;-79
2021/05/17 19:14:43;;;;;;;2.50;1.30;;;11.40;99.90;;;;;;12198098;28;20091;-78
2021/05/17 19:20:46;;;;;;;2.47;1.65;;;11.00;99.90;;;;;;12209157;28;20047;-79
2021/05/17 19:26:49;;;;;;;6.10;2.22;;;10.90;99.90;;;;;;12201374;28;20094;-78
2021/05/17 19:32:51;;;;;;;3.33;2.92;;;10.90;99.90;;;;;;12204621;28;20059;-79
2021/05/17 19:38:53;;;;;;;6.68;3.75;;;11.00;99.90;;;;;;12208792;28;20090;-78
2021/05/17 19:44:56;;;;;;;6.82;4.15;;;11.40;99.90;;;;;;12205018;28;20036;-78
2021/05/17 19:50:58;;;;;;;5.35;3.45;;;11.60;99.90;;;;;;12207986;28;20393;-79
2021/05/17 19:57:00;;;;;;;4.38;2.92;;;11.60;99.90;;;;;;12200314;28;20496;-79
2021/05/17 20:03:08;;;;;;;2.88;2.22;;;11.50;99.90;;;;;;12206315;28;20123;-78
2021/05/17 20:09:10;;;;;;;4.25;2.33;;;11.40;99.90;;;;;;12207231;28;20055;-78
2021/05/17 20:15:15;;;;;;;4.40;2.53;;;11.30;99.90;;;;;;12198421;28;20261;-79
2021/05/17 20:21:17;;;;;;;3.50;2.05;;;11.30;99.90;;;;;;12206602;28;20122;-79
2021/05/17 20:27:19;;;;;;;5.32;2.80;;;11.40;99.90;;;;;;12209833;28;20086;-78
2021/05/17 20:33:39;;;;;;;3.67;2.60;;;11.40;99.90;;;;;;12207702;28;20131;-78
2021/05/17 20:39:42;;;;;;;5.03;3.20;;;11.40;99.90;;;;;;12204400;28;20514;-78
2021/05/17 20:45:47;;;;;;;5.15;3.30;;;11.10;99.90;;;;;;12211894;28;20577;-78
2021/05/17 20:51:49;;;;;;;6.30;3.40;;;11.20;99.90;;;;;;12208330;28;20131;-77
2021/05/17 20:57:51;;;;;;;5.10;3.90;;;11.20;99.90;;;;;;12208264;28;20533;-78
2021/05/17 21:03:53;;;;;;;7.22;4.72;;;11.40;99.90;;;;;;12254572;28;20064;-78
2021/05/17 21:09:55;;;;;;;8.18;5.55;;;11.30;99.90;;;;;;12231130;28;20071;-78
2021/05/17 21:15:57;;;;;;;7.40;5.65;;;11.40;99.90;;;;;;12209697;28;20515;-78
2021/05/17 21:21:59;;;;;;;10.77;6.22;;;11.40;99.90;;;;;;12207882;28;20043;-78
2021/05/17 21:28:02;;;;;;;7.78;5.53;;;11.50;99.90;;;;;;12199287;28;20094;-78
2021/05/17 21:34:04;;;;;;;8.63;5.38;;;11.40;99.90;;;;;;12196054;28;20045;-78
2021/05/17 21:40:07;;;;;;;7.30;5.03;;;11.20;99.90;;;;;;12206127;28;20354;-78
2021/05/17 21:46:10;;;;;;;7.47;5.57;;;11.20;99.90;;;;;;12201309;28;20067;-78
2021/05/17 21:52:12;;;;;;;9.20;5.95;;;11.20;99.90;;;;;;12207255;28;20040;-78
2021/05/17 21:58:14;;;;;;;7.30;5.90;;;11.30;99.90;;;;;;12280319;28;20143;-78
2021/05/17 22:04:16;;;;;;;8.00;5.88;;;11.20;99.90;;;;;;12198009;28;20517;-78
2021/05/17 22:10:18;;;;;;;8.60;5.93;;;11.00;99.90;;;;;;12202502;28;20381;-78
2021/05/17 22:16:20;;;;;;;8.95;6.88;;;11.20;99.90;;;;;;12196413;28;20466;-78
2021/05/17 22:22:22;;;;;;;7.97;6.68;;;11.10;99.90;;;;;;12211184;28;20068;-78
2021/05/17 22:28:24;;;;;;;9.77;7.75;;;11.10;99.90;;;;;;12209518;28;20111;-78
2021/05/17 22:34:39;;;;;;;9.52;8.05;;;11.00;99.90;;;;;;12277437;28;20507;-78
2021/05/17 22:40:41;;;;;;;11.45;8.27;;;11.00;99.90;;;;;;12207445;28;20090;-78
2021/05/17 22:46:43;;;;;;;11.98;8.73;;;11.00;99.90;;;;;;12199815;28;20139;-78
2021/05/17 22:52:46;;;;;;;14.32;8.82;;;11.20;99.90;;;;;;12216409;28;20055;-78
2021/05/17 22:58:48;;;;;;;12.57;9.32;;;11.10;99.90;;;;;;12205327;28;20551;-78
2021/05/17 23:04:50;;;;;;;12.13;9.02;;;11.10;99.90;;;;;;12212568;28;20037;-78
2021/05/17 23:10:53;;;;;;;12.02;9.13;;;11.10;99.90;;;;;;12201206;28;20065;-78
2021/05/17 23:16:54;;;;;;;12.60;8.82;;;11.10;99.90;;;;;;12210206;28;20082;-79
2021/05/17 23:23:07;;;;;;;14.07;10.00;;;11.00;99.90;;;;;;12199249;28;20151;-78
2021/05/17 23:29:09;;;;;;;12.73;9.52;;;11.10;99.90;;;;;;12204786;28;20492;-78
2021/05/17 23:35:12;;;;;;;12.82;9.52;;;11.00;99.90;;;;;;12196342;28;20139;-77
2021/05/17 23:41:14;;;;;;;15.55;10.13;;;10.90;99.90;;;;;;12198649;28;21076;-78
2021/05/17 23:47:16;;;;;;;14.68;10.75;;;10.80;99.90;;;;;;12217998;28;20471;-78
2021/05/17 23:53:19;;;;;;;16.98;11.07;;;10.80;99.90;;;;;;12196287;28;20055;-78
2021/05/17 23:59:21;;;;;;;21.23;11.02;;;10.80;99.90;;;;;;12218342;28;20059;-78
